sensor_id;sensor_type;location;lat;lon;timestamp;temperature;humidity
14723;DHT22;7452;55.594;12.986;2023-04-24T00:00:15;8.70;99.90
14723;DHT22;7452;55.594;12.986;2023-04-24T00:02:43;8.60;99.90
14723;DHT22;7452;55.594;12.986;2023-04-24T00:05:12;8.60;99.90
14723;DHT22;7452;55.594;12.986;2023-04-24T00:07:39;8.60;99.90
14723;DHT22;7452;55.594;12.986;2023-04-24T00:10:07;8.60;99.90
14723;DHT22;7452;55.594;12.986;2023-04-24T00:12:36;8.60;99.90
14723;DHT22;7452;55.594;12.986;2023-04-24T00:15:04;8.60;99.90
14723;DHT22;7452;55.594;12.986;2023-04-24T00:17:31;8.60;99.90
14723;DHT22;7452;55.594;12.986;2023-04-24T00:19:58;8.60;99.90
14723;DHT22;7452;55.594;12.986;2023-04-24T00:22:25;8.60;99.90
14723;DHT22;7452;55.594;12.986;2023-04-24T00:24:52;8.60;99.90
14723;DHT22;7452;55.594;12.986;2023-04-24T00:27:19;8.70;99.90
14723;DHT22;7452;55.594;12.986;2023-04-24T00:29:48;8.70;99.90
14723;DHT22;7452;55.594;12.986;2023-04-24T00:32:15;8.80;99.90
14723;DHT22;7452;55.594;12.986;2023-04-24T00:34:43;8.80;99.90
14723;DHT22;7452;55.594;12.986;2023-04-24T00:37:10;8.80;99.90
14723;DHT22;7452;55.594;12.986;2023-04-24T00:39:37;8.90;99.90
14723;DHT22;7452;55.594;12.986;2023-04-24T00:42:04;8.80;99.90
14723;DHT22;7452;55.594;12.986;2023-04-24T00:44:33;8.90;99.90
14723;DHT22;7452;55.594;12.986;2023-04-24T00:47:01;9.00;99.90
14723;DHT22;7452;55.594;12.986;2023-04-24T00:49:28;8.90;99.90
14723;DHT22;7452;55.594;12.986;2023-04-24T00:51:56;9.00;99.90
14723;DHT22;7452;55.594;12.986;2023-04-24T00:54:24;9.00;99.90
14723;DHT22;7452;55.594;12.986;2023-04-24T00:56:51;9.00;99.90
14723;DHT22;7452;55.594;12.986;2023-04-24T00:59:18;8.90;99.90
14723;DHT22;7452;55.594;12.986;2023-04-24T01:01:45;8.90;99.90
14723;DHT22;7452;55.594;12.986;2023-04-24T01:04:14;8.90;99.90
14723;DHT22;7452;55.594;12.986;2023-04-24T01:06:44;8.90;99.90
14723;DHT22;7452;55.594;12.986;2023-04-24T01:09:12;8.90;99.90
14723;DHT22;7452;55.594;12.986;2023-04-24T01:11:41;8.90;99.90
14723;DHT22;7452;55.594;12.986;2023-04-24T01:14:09;8.90;99.90
14723;DHT22;7452;55.594;12.986;2023-04-24T01:16:36;9.00;99.90
14723;DHT22;7452;55.594;12.986;2023-04-24T01:19:04;9.00;99.90
14723;DHT22;7452;55.594;12.986;2023-04-24T01:21:33;9.00;99.90
14723;DHT22;7452;55.594;12.986;2023-04-24T01:24:04;9.00;99.90
14723;DHT22;7452;55.594;12.986;2023-04-24T01:26:32;8.90;99.90
14723;DHT22;7452;55.594;12.986;2023-04-24T01:28:59;8.90;99.90
14723;DHT22;7452;55.594;12.986;2023-04-24T01:31:26;8.80;99.90
14723;DHT22;7452;55.594;12.986;2023-04-24T01:33:53;8.80;99.90
14723;DHT22;7452;55.594;12.986;2023-04-24T01:36:21;8.70;99.90
14723;DHT22;7452;55.594;12.986;2023-04-24T01:38:49;8.70;99.90
14723;DHT22;7452;55.594;12.986;2023-04-24T01:41:17;8.70;99.90
14723;DHT22;7452;55.594;12.986;2023-04-24T01:43:44;8.70;99.90
14723;DHT22;7452;55.594;12.986;2023-04-24T01:46:11;8.80;99.90
14723;DHT22;7452;55.594;12.986;2023-04-24T01:48:38;8.80;99.90
14723;DHT22;7452;55.594;12.986;2023-04-24T01:51:05;8.70;99.90
14723;DHT22;7452;55.594;12.986;2023-04-24T01:53:31;8.80;99.90
14723;DHT22;7452;55.594;12.986;2023-04-24T01:55:59;8.70;99.90
14723;DHT22;7452;55.594;12.986;2023-04-24T01:58:27;8.70;99.90
14723;DHT22;7452;55.594;12.986;2023-04-24T02:00:56;8.80;99.90
14723;DHT22;7452;55.594;12.986;2023-04-24T02:03:25;8.70;99.90
14723;DHT22;7452;55.594;12.986;2023-04-24T02:05:52;8.70;99.90
14723;DHT22;7452;55.594;12.986;2023-04-24T02:08:19;8.60;99.90
14723;DHT22;7452;55.594;12.986;2023-04-24T02:10:45;8.70;99.90
14723;DHT22;7452;55.594;12.986;2023-04-24T02:13:12;8.70;99.90
14723;DHT22;7452;55.594;12.986;2023-04-24T02:15:40;8.70;99.90
14723;DHT22;7452;55.594;12.986;2023-04-24T02:18:07;8.70;99.90
14723;DHT22;7452;55.594;12.986;2023-04-24T02:20:34;8.90;99.90
14723;DHT22;7452;55.594;12.986;2023-04-24T02:23:01;8.80;99.90
14723;DHT22;7452;55.594;12.986;2023-04-24T02:25:28;8.90;99.90
14723;DHT22;7452;55.594;12.986;2023-04-24T02:27:55;8.90;99.90
14723;DHT22;7452;55.594;12.986;2023-04-24T02:30:22;8.90;99.90
14723;DHT22;7452;55.594;12.986;2023-04-24T02:32:50;9.00;99.90
14723;DHT22;7452;55.594;12.986;2023-04-24T02:35:17;9.00;99.90
14723;DHT22;7452;55.594;12.986;2023-04-24T02:37:44;9.10;99.90
14723;DHT22;7452;55.594;12.986;2023-04-24T02:40:11;9.10;99.90
14723;DHT22;7452;55.594;12.986;2023-04-24T02:42:38;9.20;99.90
14723;DHT22;7452;55.594;12.986;2023-04-24T02:45:06;9.20;99.90
14723;DHT22;7452;55.594;12.986;2023-04-24T02:47:33;9.20;99.90
14723;DHT22;7452;55.594;12.986;2023-04-24T02:50:02;9.30;99.90
14723;DHT22;7452;55.594;12.986;2023-04-24T02:52:28;9.30;99.90
14723;DHT22;7452;55.594;12.986;2023-04-24T02:54:56;9.40;99.90
14723;DHT22;7452;55.594;12.986;2023-04-24T02:57:22;9.50;99.90
14723;DHT22;7452;55.594;12.986;2023-04-24T02:59:49;9.40;99.90
14723;DHT22;7452;55.594;12.986;2023-04-24T03:02:16;9.50;99.90
14723;DHT22;7452;55.594;12.986;2023-04-24T03:04:43;9.50;99.90
14723;DHT22;7452;55.594;12.986;2023-04-24T03:07:11;9.50;99.90
14723;DHT22;7452;55.594;12.986;2023-04-24T03:09:38;9.60;99.90
14723;DHT22;7452;55.594;12.986;2023-04-24T03:12:05;9.60;99.90
14723;DHT22;7452;55.594;12.986;2023-04-24T03:14:32;9.60;99.90
14723;DHT22;7452;55.594;12.986;2023-04-24T03:17:00;9.60;99.90
14723;DHT22;7452;55.594;12.986;2023-04-24T03:19:27;9.60;99.90
14723;DHT22;7452;55.594;12.986;2023-04-24T03:21:53;9.70;99.90
14723;DHT22;7452;55.594;12.986;2023-04-24T03:24:22;9.60;99.90
14723;DHT22;7452;55.594;12.986;2023-04-24T03:26:49;9.70;99.90
14723;DHT22;7452;55.594;12.986;2023-04-24T03:29:15;9.70;99.90
14723;DHT22;7452;55.594;12.986;2023-04-24T03:31:43;9.70;99.90
14723;DHT22;7452;55.594;12.986;2023-04-24T03:34:09;9.70;99.90
14723;DHT22;7452;55.594;12.986;2023-04-24T03:36:36;9.70;99.90
14723;DHT22;7452;55.594;12.986;2023-04-24T03:39:03;9.70;99.90
14723;DHT22;7452;55.594;12.986;2023-04-24T03:41:32;9.70;99.90
14723;DHT22;7452;55.594;12.986;2023-04-24T03:43:59;9.70;99.90
14723;DHT22;7452;55.594;12.986;2023-04-24T03:46:26;9.70;99.90
14723;DHT22;7452;55.594;12.986;2023-04-24T03:48:52;9.80;99.90
14723;DHT22;7452;55.594;12.986;2023-04-24T03:51:19;9.80;99.90
14723;DHT22;7452;55.594;12.986;2023-04-24T03:53:47;9.90;99.90
14723;DHT22;7452;55.594;12.986;2023-04-24T03:56:14;9.80;99.90
14723;DHT22;7452;55.594;12.986;2023-04-24T03:58:42;9.90;99.90
14723;DHT22;7452;55.594;12.986;2023-04-24T04:01:09;9.80;99.90
14723;DHT22;7452;55.594;12.986;2023-04-24T04:03:37;9.90;99.90
14723;DHT22;7452;55.594;12.986;2023-04-24T04:06:04;9.90;99.90
14723;DHT22;7452;55.594;12.986;2023-04-24T04:08:31;9.90;99.90
14723;DHT22;7452;55.594;12.986;2023-04-24T04:10:58;9.90;99.90
14723;DHT22;7452;55.594;12.986;2023-04-24T04:13:25;9.90;99.90
14723;DHT22;7452;55.594;12.986;2023-04-24T04:15:53;9.90;99.90
14723;DHT22;7452;55.594;12.986;2023-04-24T04:18:20;10.00;99.90
14723;DHT22;7452;55.594;12.986;2023-04-24T04:20:47;9.90;99.90
14723;DHT22;7452;55.594;12.986;2023-04-24T04:23:14;10.00;99.90
14723;DHT22;7452;55.594;12.986;2023-04-24T04:25:40;10.00;99.90
14723;DHT22;7452;55.594;12.986;2023-04-24T04:28:07;10.00;99.90
14723;DHT22;7452;55.594;12.986;2023-04-24T04:30:34;10.00;99.90
14723;DHT22;7452;55.594;12.986;2023-04-24T04:33:05;10.10;99.90
14723;DHT22;7452;55.594;12.986;2023-04-24T04:35:31;10.10;99.90
14723;DHT22;7452;55.594;12.986;2023-04-24T04:37:58;10.20;99.90
14723;DHT22;7452;55.594;12.986;2023-04-24T04:40:26;10.30;99.90
14723;DHT22;7452;55.594;12.986;2023-04-24T04:42:53;10.30;99.90
14723;DHT22;7452;55.594;12.986;2023-04-24T04:45:21;10.40;99.90
14723;DHT22;7452;55.594;12.986;2023-04-24T04:47:49;10.20;99.90
14723;DHT22;7452;55.594;12.986;2023-04-24T04:50:18;10.30;99.90
14723;DHT22;7452;55.594;12.986;2023-04-24T04:52:45;10.30;99.90
14723;DHT22;7452;55.594;12.986;2023-04-24T04:55:11;10.30;99.90
14723;DHT22;7452;55.594;12.986;2023-04-24T04:57:40;10.20;99.90
14723;DHT22;7452;55.594;12.986;2023-04-24T05:00:08;10.30;99.90
14723;DHT22;7452;55.594;12.986;2023-04-24T05:02:36;10.20;99.90
14723;DHT22;7452;55.594;12.986;2023-04-24T05:05:03;10.20;99.90
14723;DHT22;7452;55.594;12.986;2023-04-24T05:07:32;10.20;99.90
14723;DHT22;7452;55.594;12.986;2023-04-24T05:09:59;10.30;99.90
14723;DHT22;7452;55.594;12.986;2023-04-24T05:12:26;10.30;99.90
14723;DHT22;7452;55.594;12.986;2023-04-24T05:14:53;10.30;99.90
14723;DHT22;7452;55.594;12.986;2023-04-24T05:17:20;10.30;99.90
14723;DHT22;7452;55.594;12.986;2023-04-24T05:19:47;10.30;99.90
14723;DHT22;7452;55.594;12.986;2023-04-24T05:22:14;10.30;99.90
14723;DHT22;7452;55.594;12.986;2023-04-24T05:24:44;10.40;99.90
14723;DHT22;7452;55.594;12.986;2023-04-24T05:27:11;10.40;99.90
14723;DHT22;7452;55.594;12.986;2023-04-24T05:29:38;10.40;99.90
14723;DHT22;7452;55.594;12.986;2023-04-24T05:32:06;10.40;99.90
14723;DHT22;7452;55.594;12.986;2023-04-24T05:34:32;10.50;99.90
14723;DHT22;7452;55.594;12.986;2023-04-24T05:36:59;10.50;99.90
14723;DHT22;7452;55.594;12.986;2023-04-24T05:39:26;10.50;99.90
14723;DHT22;7452;55.594;12.986;2023-04-24T05:41:54;10.60;99.90
14723;DHT22;7452;55.594;12.986;2023-04-24T05:44:23;10.60;99.90
14723;DHT22;7452;55.594;12.986;2023-04-24T05:46:50;10.60;99.90
14723;DHT22;7452;55.594;12.986;2023-04-24T05:49:17;10.60;99.90
14723;DHT22;7452;55.594;12.986;2023-04-24T05:51:44;10.60;99.90
14723;DHT22;7452;55.594;12.986;2023-04-24T05:54:10;10.60;99.90
14723;DHT22;7452;55.594;12.986;2023-04-24T05:56:38;10.70;99.90
14723;DHT22;7452;55.594;12.986;2023-04-24T05:59:06;10.80;99.90
14723;DHT22;7452;55.594;12.986;2023-04-24T06:01:33;10.70;99.90
14723;DHT22;7452;55.594;12.986;2023-04-24T06:04:02;10.80;99.90
14723;DHT22;7452;55.594;12.986;2023-04-24T06:06:28;10.80;99.90
14723;DHT22;7452;55.594;12.986;2023-04-24T06:08:56;11.00;99.90
14723;DHT22;7452;55.594;12.986;2023-04-24T06:11:24;11.00;99.90
14723;DHT22;7452;55.594;12.986;2023-04-24T06:13:51;11.00;99.90
14723;DHT22;7452;55.594;12.986;2023-04-24T06:16:20;11.00;99.90
14723;DHT22;7452;55.594;12.986;2023-04-24T06:18:46;11.10;99.90
14723;DHT22;7452;55.594;12.986;2023-04-24T06:21:14;11.10;99.90
14723;DHT22;7452;55.594;12.986;2023-04-24T06:23:41;11.10;99.90
14723;DHT22;7452;55.594;12.986;2023-04-24T06:26:08;11.10;99.90
14723;DHT22;7452;55.594;12.986;2023-04-24T06:28:35;11.20;99.90
14723;DHT22;7452;55.594;12.986;2023-04-24T06:31:02;11.20;99.90
14723;DHT22;7452;55.594;12.986;2023-04-24T06:33:30;11.20;99.90
14723;DHT22;7452;55.594;12.986;2023-04-24T06:35:57;11.20;99.90
14723;DHT22;7452;55.594;12.986;2023-04-24T06:38:24;11.20;99.90
14723;DHT22;7452;55.594;12.986;2023-04-24T06:40:51;11.30;99.90
14723;DHT22;7452;55.594;12.986;2023-04-24T06:43:18;11.30;99.90
14723;DHT22;7452;55.594;12.986;2023-04-24T06:45:45;11.30;99.90
14723;DHT22;7452;55.594;12.986;2023-04-24T06:48:12;11.40;99.90
14723;DHT22;7452;55.594;12.986;2023-04-24T06:50:40;11.40;99.90
14723;DHT22;7452;55.594;12.986;2023-04-24T06:53:07;11.40;99.90
14723;DHT22;7452;55.594;12.986;2023-04-24T06:55:36;11.30;99.90
14723;DHT22;7452;55.594;12.986;2023-04-24T06:58:03;11.40;99.90
14723;DHT22;7452;55.594;12.986;2023-04-24T07:00:31;11.40;99.90
14723;DHT22;7452;55.594;12.986;2023-04-24T07:02:58;11.40;99.90
14723;DHT22;7452;55.594;12.986;2023-04-24T07:05:25;11.40;99.90
14723;DHT22;7452;55.594;12.986;2023-04-24T07:07:53;11.40;99.90
14723;DHT22;7452;55.594;12.986;2023-04-24T07:10:20;11.30;99.90
14723;DHT22;7452;55.594;12.986;2023-04-24T07:12:47;11.30;99.90
14723;DHT22;7452;55.594;12.986;2023-04-24T07:15:14;11.30;99.90
14723;DHT22;7452;55.594;12.986;2023-04-24T07:17:41;11.20;99.90
14723;DHT22;7452;55.594;12.986;2023-04-24T07:20:10;11.30;99.90
14723;DHT22;7452;55.594;12.986;2023-04-24T07:22:37;11.20;99.90
14723;DHT22;7452;55.594;12.986;2023-04-24T07:25:07;11.10;99.90
14723;DHT22;7452;55.594;12.986;2023-04-24T07:27:35;11.00;99.90
14723;DHT22;7452;55.594;12.986;2023-04-24T07:30:02;10.80;99.90
14723;DHT22;7452;55.594;12.986;2023-04-24T07:32:30;10.80;99.90
14723;DHT22;7452;55.594;12.986;2023-04-24T07:34:56;10.70;99.90
14723;DHT22;7452;55.594;12.986;2023-04-24T07:37:23;10.60;99.90
14723;DHT22;7452;55.594;12.986;2023-04-24T07:39:50;10.50;99.90
14723;DHT22;7452;55.594;12.986;2023-04-24T07:42:19;10.50;99.90
14723;DHT22;7452;55.594;12.986;2023-04-24T07:44:46;10.50;99.90
14723;DHT22;7452;55.594;12.986;2023-04-24T07:47:13;10.50;99.90
14723;DHT22;7452;55.594;12.986;2023-04-24T07:49:41;10.40;99.90
14723;DHT22;7452;55.594;12.986;2023-04-24T07:52:08;10.50;99.90
14723;DHT22;7452;55.594;12.986;2023-04-24T07:54:35;10.50;99.90
14723;DHT22;7452;55.594;12.986;2023-04-24T07:57:03;10.40;99.90
14723;DHT22;7452;55.594;12.986;2023-04-24T07:59:33;10.50;99.90
14723;DHT22;7452;55.594;12.986;2023-04-24T08:02:00;10.50;99.90
14723;DHT22;7452;55.594;12.986;2023-04-24T08:04:27;10.50;99.90
14723;DHT22;7452;55.594;12.986;2023-04-24T08:06:54;10.50;99.90
14723;DHT22;7452;55.594;12.986;2023-04-24T08:09:21;10.50;99.90
14723;DHT22;7452;55.594;12.986;2023-04-24T08:11:48;10.50;99.90
14723;DHT22;7452;55.594;12.986;2023-04-24T08:14:15;10.60;99.90
14723;DHT22;7452;55.594;12.986;2023-04-24T08:16:43;10.70;99.90
14723;DHT22;7452;55.594;12.986;2023-04-24T08:19:10;10.70;99.90
14723;DHT22;7452;55.594;12.986;2023-04-24T08:21:37;10.70;99.90
14723;DHT22;7452;55.594;12.986;2023-04-24T08:24:04;10.80;99.90
14723;DHT22;7452;55.594;12.986;2023-04-24T08:26:33;10.80;99.90
14723;DHT22;7452;55.594;12.986;2023-04-24T08:29:00;10.90;99.90
14723;DHT22;7452;55.594;12.986;2023-04-24T08:31:27;11.00;99.90
14723;DHT22;7452;55.594;12.986;2023-04-24T08:33:55;11.10;99.90
14723;DHT22;7452;55.594;12.986;2023-04-24T08:36:22;11.10;99.90
14723;DHT22;7452;55.594;12.986;2023-04-24T08:38:49;11.20;99.90
14723;DHT22;7452;55.594;12.986;2023-04-24T08:41:18;11.10;99.90
14723;DHT22;7452;55.594;12.986;2023-04-24T08:43:46;11.00;99.90
14723;DHT22;7452;55.594;12.986;2023-04-24T08:46:13;11.10;99.90
14723;DHT22;7452;55.594;12.986;2023-04-24T08:48:41;11.20;99.90
14723;DHT22;7452;55.594;12.986;2023-04-24T08:51:10;11.20;99.90
14723;DHT22;7452;55.594;12.986;2023-04-24T08:53:37;11.30;99.90
14723;DHT22;7452;55.594;12.986;2023-04-24T08:56:04;11.20;99.90
14723;DHT22;7452;55.594;12.986;2023-04-24T08:58:31;11.10;99.90
14723;DHT22;7452;55.594;12.986;2023-04-24T09:01:00;11.10;99.90
14723;DHT22;7452;55.594;12.986;2023-04-24T09:03:28;11.10;99.90
14723;DHT22;7452;55.594;12.986;2023-04-24T09:05:56;11.10;99.90
14723;DHT22;7452;55.594;12.986;2023-04-24T09:08:26;11.10;99.90
14723;DHT22;7452;55.594;12.986;2023-04-24T09:10:54;11.00;99.90
14723;DHT22;7452;55.594;12.986;2023-04-24T09:13:24;10.90;99.90
14723;DHT22;7452;55.594;12.986;2023-04-24T09:15:51;10.70;99.90
14723;DHT22;7452;55.594;12.986;2023-04-24T09:18:19;10.80;99.90
14723;DHT22;7452;55.594;12.986;2023-04-24T09:21:03;10.80;99.90
14723;DHT22;7452;55.594;12.986;2023-04-24T09:23:32;10.70;99.90
14723;DHT22;7452;55.594;12.986;2023-04-24T09:26:00;10.70;99.90
14723;DHT22;7452;55.594;12.986;2023-04-24T09:28:29;10.70;99.90
14723;DHT22;7452;55.594;12.986;2023-04-24T09:31:07;10.70;99.90
14723;DHT22;7452;55.594;12.986;2023-04-24T09:33:35;10.80;99.90
14723;DHT22;7452;55.594;12.986;2023-04-24T09:36:02;10.80;99.90
14723;DHT22;7452;55.594;12.986;2023-04-24T09:38:35;10.80;99.90
14723;DHT22;7452;55.594;12.986;2023-04-24T09:41:03;10.80;99.90
14723;DHT22;7452;55.594;12.986;2023-04-24T09:43:31;10.80;99.90
14723;DHT22;7452;55.594;12.986;2023-04-24T09:45:59;10.90;99.90
14723;DHT22;7452;55.594;12.986;2023-04-24T09:48:31;11.10;99.90
14723;DHT22;7452;55.594;12.986;2023-04-24T09:50:58;11.30;99.90
14723;DHT22;7452;55.594;12.986;2023-04-24T09:53:26;11.40;99.90
14723;DHT22;7452;55.594;12.986;2023-04-24T09:55:55;11.40;99.90
14723;DHT22;7452;55.594;12.986;2023-04-24T09:58:25;11.30;99.90
14723;DHT22;7452;55.594;12.986;2023-04-24T10:00:54;11.40;99.90
14723;DHT22;7452;55.594;12.986;2023-04-24T10:03:25;11.50;99.90
14723;DHT22;7452;55.594;12.986;2023-04-24T10:05:53;11.50;99.90
14723;DHT22;7452;55.594;12.986;2023-04-24T10:08:21;11.60;99.90
14723;DHT22;7452;55.594;12.986;2023-04-24T10:10:48;11.70;99.90
14723;DHT22;7452;55.594;12.986;2023-04-24T10:13:16;11.70;99.90
14723;DHT22;7452;55.594;12.986;2023-04-24T10:15:43;11.60;99.90
14723;DHT22;7452;55.594;12.986;2023-04-24T10:18:10;11.70;99.90
14723;DHT22;7452;55.594;12.986;2023-04-24T10:20:39;11.80;99.90
14723;DHT22;7452;55.594;12.986;2023-04-24T10:23:06;12.00;99.90
14723;DHT22;7452;55.594;12.986;2023-04-24T10:25:35;12.00;99.90
14723;DHT22;7452;55.594;12.986;2023-04-24T10:28:02;12.00;99.90
14723;DHT22;7452;55.594;12.986;2023-04-24T10:30:32;12.10;99.90
14723;DHT22;7452;55.594;12.986;2023-04-24T10:33:01;12.10;99.90
14723;DHT22;7452;55.594;12.986;2023-04-24T10:35:30;12.20;99.90
14723;DHT22;7452;55.594;12.986;2023-04-24T10:38:01;12.40;99.90
14723;DHT22;7452;55.594;12.986;2023-04-24T10:40:31;12.40;99.90
14723;DHT22;7452;55.594;12.986;2023-04-24T10:43:01;12.80;99.90
14723;DHT22;7452;55.594;12.986;2023-04-24T10:45:30;13.30;99.90
14723;DHT22;7452;55.594;12.986;2023-04-24T10:47:58;13.60;99.90
14723;DHT22;7452;55.594;12.986;2023-04-24T10:50:27;13.90;99.90
14723;DHT22;7452;55.594;12.986;2023-04-24T10:53:05;14.00;99.90
14723;DHT22;7452;55.594;12.986;2023-04-24T10:55:51;14.70;99.90
14723;DHT22;7452;55.594;12.986;2023-04-24T10:58:22;15.70;99.90
14723;DHT22;7452;55.594;12.986;2023-04-24T11:00:57;16.90;99.90
14723;DHT22;7452;55.594;12.986;2023-04-24T11:03:26;18.60;99.90
14723;DHT22;7452;55.594;12.986;2023-04-24T11:05:56;20.30;99.90
14723;DHT22;7452;55.594;12.986;2023-04-24T11:08:25;20.80;99.90
14723;DHT22;7452;55.594;12.986;2023-04-24T11:11:01;22.10;99.90
14723;DHT22;7452;55.594;12.986;2023-04-24T11:14:01;22.60;99.90
14723;DHT22;7452;55.594;12.986;2023-04-24T11:16:31;23.10;99.90
14723;DHT22;7452;55.594;12.986;2023-04-24T11:19:04;23.70;99.90
14723;DHT22;7452;55.594;12.986;2023-04-24T11:21:32;23.70;99.90
14723;DHT22;7452;55.594;12.986;2023-04-24T11:24:05;24.20;99.90
14723;DHT22;7452;55.594;12.986;2023-04-24T11:26:48;24.70;99.90
14723;DHT22;7452;55.594;12.986;2023-04-24T11:29:14;24.90;99.90
14723;DHT22;7452;55.594;12.986;2023-04-24T11:31:44;24.40;99.90
14723;DHT22;7452;55.594;12.986;2023-04-24T11:34:15;24.00;99.90
14723;DHT22;7452;55.594;12.986;2023-04-24T11:36:43;23.20;99.90
14723;DHT22;7452;55.594;12.986;2023-04-24T11:39:10;22.90;99.90
14723;DHT22;7452;55.594;12.986;2023-04-24T11:41:38;22.90;99.90
14723;DHT22;7452;55.594;12.986;2023-04-24T11:44:06;23.10;99.90
14723;DHT22;7452;55.594;12.986;2023-04-24T11:46:33;23.50;99.90
14723;DHT22;7452;55.594;12.986;2023-04-24T11:49:02;23.60;99.90
14723;DHT22;7452;55.594;12.986;2023-04-24T11:51:29;22.50;99.90
14723;DHT22;7452;55.594;12.986;2023-04-24T11:53:57;21.10;99.90
14723;DHT22;7452;55.594;12.986;2023-04-24T11:56:25;20.80;99.90
14723;DHT22;7452;55.594;12.986;2023-04-24T11:58:52;21.70;99.90
14723;DHT22;7452;55.594;12.986;2023-04-24T12:01:20;22.40;99.90
14723;DHT22;7452;55.594;12.986;2023-04-24T12:03:48;22.10;99.90
14723;DHT22;7452;55.594;12.986;2023-04-24T12:06:17;22.20;99.90
14723;DHT22;7452;55.594;12.986;2023-04-24T12:08:48;22.90;99.90
14723;DHT22;7452;55.594;12.986;2023-04-24T12:11:16;23.40;99.90
14723;DHT22;7452;55.594;12.986;2023-04-24T12:13:46;23.30;99.90
14723;DHT22;7452;55.594;12.986;2023-04-24T12:16:13;23.80;99.90
14723;DHT22;7452;55.594;12.986;2023-04-24T12:18:44;24.30;99.90
14723;DHT22;7452;55.594;12.986;2023-04-24T12:21:20;24.90;99.90
14723;DHT22;7452;55.594;12.986;2023-04-24T12:23:47;24.40;99.90
14723;DHT22;7452;55.594;12.986;2023-04-24T12:26:17;23.90;99.90
14723;DHT22;7452;55.594;12.986;2023-04-24T12:28:47;23.40;99.90
14723;DHT22;7452;55.594;12.986;2023-04-24T12:31:14;24.20;99.90
14723;DHT22;7452;55.594;12.986;2023-04-24T12:33:42;24.90;99.90
14723;DHT22;7452;55.594;12.986;2023-04-24T12:36:10;26.00;99.90
14723;DHT22;7452;55.594;12.986;2023-04-24T12:38:43;26.00;99.90
14723;DHT22;7452;55.594;12.986;2023-04-24T12:41:12;25.00;99.90
14723;DHT22;7452;55.594;12.986;2023-04-24T12:43:51;25.00;99.90
14723;DHT22;7452;55.594;12.986;2023-04-24T12:46:18;25.00;99.90
14723;DHT22;7452;55.594;12.986;2023-04-24T12:48:45;25.40;99.90
14723;DHT22;7452;55.594;12.986;2023-04-24T12:51:12;24.40;99.90
14723;DHT22;7452;55.594;12.986;2023-04-24T12:53:41;24.80;99.90
14723;DHT22;7452;55.594;12.986;2023-04-24T12:56:07;25.30;99.90
14723;DHT22;7452;55.594;12.986;2023-04-24T12:58:34;25.40;99.90
14723;DHT22;7452;55.594;12.986;2023-04-24T13:01:01;25.70;99.90
14723;DHT22;7452;55.594;12.986;2023-04-24T13:03:28;26.10;99.90
14723;DHT22;7452;55.594;12.986;2023-04-24T13:05:55;26.10;99.90
14723;DHT22;7452;55.594;12.986;2023-04-24T13:08:22;26.10;99.90
14723;DHT22;7452;55.594;12.986;2023-04-24T13:10:50;26.60;99.90
14723;DHT22;7452;55.594;12.986;2023-04-24T13:13:17;26.60;99.90
14723;DHT22;7452;55.594;12.986;2023-04-24T13:15:44;26.50;99.90
14723;DHT22;7452;55.594;12.986;2023-04-24T13:18:11;25.70;99.90
14723;DHT22;7452;55.594;12.986;2023-04-24T13:20:38;24.90;99.90
14723;DHT22;7452;55.594;12.986;2023-04-24T13:23:06;24.50;99.90
14723;DHT22;7452;55.594;12.986;2023-04-24T13:25:35;24.10;99.90
14723;DHT22;7452;55.594;12.986;2023-04-24T13:28:04;23.70;99.90
14723;DHT22;7452;55.594;12.986;2023-04-24T13:30:31;24.00;99.90
14723;DHT22;7452;55.594;12.986;2023-04-24T13:32:58;23.60;99.90
14723;DHT22;7452;55.594;12.986;2023-04-24T13:35:25;23.40;99.90
14723;DHT22;7452;55.594;12.986;2023-04-24T13:37:51;24.30;99.90
14723;DHT22;7452;55.594;12.986;2023-04-24T13:40:18;24.40;99.90
14723;DHT22;7452;55.594;12.986;2023-04-24T13:42:45;24.30;99.90
14723;DHT22;7452;55.594;12.986;2023-04-24T13:45:14;23.60;99.90
14723;DHT22;7452;55.594;12.986;2023-04-24T13:47:40;22.90;99.90
14723;DHT22;7452;55.594;12.986;2023-04-24T13:50:08;22.80;99.90
14723;DHT22;7452;55.594;12.986;2023-04-24T13:52:35;22.90;99.90
14723;DHT22;7452;55.594;12.986;2023-04-24T13:55:02;23.00;99.90
14723;DHT22;7452;55.594;12.986;2023-04-24T13:57:29;23.20;99.90
14723;DHT22;7452;55.594;12.986;2023-04-24T13:59:57;23.30;99.90
14723;DHT22;7452;55.594;12.986;2023-04-24T14:02:28;24.00;99.90
14723;DHT22;7452;55.594;12.986;2023-04-24T14:04:56;24.70;99.90
14723;DHT22;7452;55.594;12.986;2023-04-24T14:07:23;25.00;99.90
14723;DHT22;7452;55.594;12.986;2023-04-24T14:09:50;24.10;99.90
14723;DHT22;7452;55.594;12.986;2023-04-24T14:12:17;24.00;99.90
14723;DHT22;7452;55.594;12.986;2023-04-24T14:14:46;23.40;99.90
14723;DHT22;7452;55.594;12.986;2023-04-24T14:17:13;23.60;99.90
14723;DHT22;7452;55.594;12.986;2023-04-24T14:19:41;23.60;99.90
14723;DHT22;7452;55.594;12.986;2023-04-24T14:22:09;23.50;99.90
14723;DHT22;7452;55.594;12.986;2023-04-24T14:24:36;23.00;99.90
14723;DHT22;7452;55.594;12.986;2023-04-24T14:27:03;22.80;99.90
14723;DHT22;7452;55.594;12.986;2023-04-24T14:29:30;22.60;99.90
14723;DHT22;7452;55.594;12.986;2023-04-24T14:31:56;22.70;99.90
14723;DHT22;7452;55.594;12.986;2023-04-24T14:34:23;22.40;99.90
14723;DHT22;7452;55.594;12.986;2023-04-24T14:36:52;22.30;99.90
14723;DHT22;7452;55.594;12.986;2023-04-24T14:39:20;22.80;99.90
14723;DHT22;7452;55.594;12.986;2023-04-24T14:41:47;22.40;99.90
14723;DHT22;7452;55.594;12.986;2023-04-24T14:44:14;22.00;99.90
14723;DHT22;7452;55.594;12.986;2023-04-24T14:46:41;21.40;99.90
14723;DHT22;7452;55.594;12.986;2023-04-24T14:49:08;20.80;99.90
14723;DHT22;7452;55.594;12.986;2023-04-24T14:51:37;20.70;99.90
14723;DHT22;7452;55.594;12.986;2023-04-24T14:54:05;20.80;99.90
14723;DHT22;7452;55.594;12.986;2023-04-24T14:56:32;21.00;99.90
14723;DHT22;7452;55.594;12.986;2023-04-24T14:58:59;21.00;99.90
14723;DHT22;7452;55.594;12.986;2023-04-24T15:01:26;20.50;99.90
14723;DHT22;7452;55.594;12.986;2023-04-24T15:03:53;20.20;99.90
14723;DHT22;7452;55.594;12.986;2023-04-24T15:06:20;20.30;99.90
14723;DHT22;7452;55.594;12.986;2023-04-24T15:08:47;20.00;99.90
14723;DHT22;7452;55.594;12.986;2023-04-24T15:11:15;19.80;99.90
14723;DHT22;7452;55.594;12.986;2023-04-24T15:13:42;20.00;99.90
14723;DHT22;7452;55.594;12.986;2023-04-24T15:16:10;20.20;99.90
14723;DHT22;7452;55.594;12.986;2023-04-24T15:18:37;20.20;99.90
14723;DHT22;7452;55.594;12.986;2023-04-24T15:21:04;20.30;99.90
14723;DHT22;7452;55.594;12.986;2023-04-24T15:23:31;20.50;99.90
14723;DHT22;7452;55.594;12.986;2023-04-24T15:25:58;20.40;99.90
14723;DHT22;7452;55.594;12.986;2023-04-24T15:28:26;20.10;99.90
14723;DHT22;7452;55.594;12.986;2023-04-24T15:30:53;20.10;99.90
14723;DHT22;7452;55.594;12.986;2023-04-24T15:33:20;19.90;99.90
14723;DHT22;7452;55.594;12.986;2023-04-24T15:35:47;20.40;99.90
14723;DHT22;7452;55.594;12.986;2023-04-24T15:38:14;20.60;99.90